Volcan De Tauce — EAGW — position and weather

sailwx.info

Track history (hours):
 
Tides and Currents Weather Stations Pressure Air Temp Water Temp Dewpoint Dewpoint Depression Visibility Wind Speed Wind Dir Waves Ship Positions

Volcan De Tauce

Last reported at 2015-Jul-03 23:33 UTC. Time now 2015-Jul-03 23:43 UTC.
Position N 28°06' W 015°15'.

Length 120 m; draft 4.7 m.

Type: Passenger vessel. MMSI: 224761000.

Date/timePositionNaut miles runAvg speedWind from/ knotsBaromVisibWave heightAir tempDewpointWater temp
2015-Jul-03 23:33N 28°06' W 015°15'9 8.2
2015-Jul-03 22:31N 28°08' W 015°25'0 0.0
2015-Jul-03 21:33N 28°08' W 015°25'0 0.0
2015-Jul-03 20:33N 28°08' W 015°25'0 0.0
2015-Jul-03 19:34N 28°08' W 015°25'0 0.0
2015-Jul-03 18:34N 28°08' W 015°25'0 0.0
2015-Jul-03 17:33N 28°08' W 015°25'1 0.9
2015-Jul-03 16:34N 28°07' W 015°24'1515.0
2015-Jul-03 15:33N 28°05' W 015°08'1615.8
2015-Jul-03 14:33N 28°04' W 014°50'1616.0
2015-Jul-03 13:33N 28°02' W 014°32'1615.6
2015-Jul-03 12:31N 28°03' W 014°13'1916.5
2015-Jul-03 11:23N 28°12' W 013°55'4 0.5
2015-Jul-03 04:24N 28°11' W 013°59'2116.1
2015-Jul-03 03:06N 28°01' W 014°20'1515.4
2015-Jul-03 02:08N 28°02' W 014°37'915.4
2015-Jul-03 01:34N 28°03' W 014°47'1515.3
2015-Jul-03 00:33N 28°05' W 015°04'1615.6
2015-Jul-02 23:33N 28°07' W 015°21'3 3.2
2015-Jul-02 22:27N 28°08' W 015°25'0 0.0
2015-Jul-02 21:33N 28°08' W 015°25'0 0.0
2015-Jul-02 20:33N 28°08' W 015°25'0 0.0
2015-Jul-02 19:33N 28°08' W 015°25'0 0.0
2015-Jul-02 18:33N 28°08' W 015°25'0 0.0
2015-Jul-02 17:33N 28°08' W 015°25'0 0.2
2015-Jul-02 16:33N 28°08' W 015°25'1313.0
2015-Jul-02 15:33N 28°05' W 015°10'1615.9
2015-Jul-02 14:33N 28°04' W 014°52'1616.0
2015-Jul-02 13:33N 28°02' W 014°34'1615.8
2015-Jul-02 12:33N 28°02' W 014°16'1716.4
2015-Jul-02 11:29N 28°11' W 013°59'1 0.1
2015-Jul-02 04:09N 28°10' W 013°60'1016.5
2015-Jul-02 03:33N 28°06' W 014°09'2015.3
2015-Jul-02 02:17N 28°01' W 014°31'1115.4
2015-Jul-02 01:33N 28°03' W 014°44'1515.5
2015-Jul-02 00:33N 28°05' W 015°01'1615.9
2015-Jul-01 23:33N 28°07' W 015°19'5 5.4
2015-Jul-01 22:32N 28°08' W 015°25'0 0.0
2015-Jul-01 21:33N 28°08' W 015°25'0 0.0
2015-Jul-01 20:33N 28°08' W 015°25'0 0.0
2015-Jul-01 19:33N 28°08' W 015°25'0 0.0
2015-Jul-01 18:34N 28°08' W 015°25'0 0.0
2015-Jul-01 17:34N 28°08' W 015°25'0 0.0
2015-Jul-01 16:33N 28°08' W 015°25'1313.4
2015-Jul-01 15:33N 28°05' W 015°10'1616.2
2015-Jul-01 14:33N 28°04' W 014°52'1616.4
2015-Jul-01 13:33N 28°02' W 014°33'1616.0
2015-Jul-01 12:33N 28°03' W 014°15'1916.8
2015-Jul-01 11:26N 28°12' W 013°57'13 2.1
2015-Jul-01 05:13N 28°24' W 013°49'1115.4
2015-Jul-01 04:31N 28°14' W 013°54'1616.1
2015-Jul-01 03:33N 28°06' W 014°09'1615.5
2015-Jul-01 02:32N 28°01' W 014°26'1515.4
2015-Jul-01 01:33N 28°02' W 014°43'1515.5
2015-Jul-01 00:33N 28°04' W 015°01'1615.9
2015-Jun-30 23:33N 28°06' W 015°18'6 4.6
2015-Jun-30 22:15N 28°08' W 015°25'0 0.0
2015-Jun-30 21:33N 28°08' W 015°25'0 0.0
2015-Jun-30 20:33N 28°08' W 015°25'0 0.0
2015-Jun-30 19:33N 28°08' W 015°25'0 0.0
2015-Jun-30 18:33N 28°08' W 015°25'0 0.0
2015-Jun-30 17:33N 28°08' W 015°25'0 0.4
2015-Jun-30 16:33N 28°08' W 015°25'1414.3
2015-Jun-30 15:33N 28°06' W 015°08'1615.8
2015-Jun-30 14:33N 28°04' W 014°51'1616.4
2015-Jun-30 13:33N 28°02' W 014°32'1616.1
2015-Jun-30 12:33N 28°03' W 014°14'1716.9
2015-Jun-30 11:33N 28°11' W 013°57'2 0.3
2015-Jun-30 04:33N 28°13' W 013°56'1716.2
2015-Jun-30 03:29N 28°04' W 014°13'1415.2
2015-Jun-30 02:33N 28°01' W 014°29'1615.2
2015-Jun-30 01:29N 28°03' W 014°47'1415.4
2015-Jun-30 00:33N 28°04' W 015°03'1616.0
2015-Jun-29 23:33N 28°07' W 015°21'4 3.7
2015-Jun-29 22:32N 28°08' W 015°25'0 0.0
2015-Jun-28 10:33N 28°08' W 015°25'0 0.0
2015-Jun-28 09:33N 28°08' W 015°25'0 0.0
2015-Jun-28 08:33N 28°08' W 015°25'0 0.0
2015-Jun-28 07:33N 28°08' W 015°25'0 0.0
2015-Jun-28 06:33N 28°08' W 015°25'0 0.0
2015-Jun-28 05:33N 28°08' W 015°25'0 0.0
2015-Jun-28 04:33N 28°08' W 015°25'0 0.0
2015-Jun-28 03:33N 28°08' W 015°25'0 0.0
2015-Jun-28 02:33N 28°08' W 015°25'0 0.0
2015-Jun-28 01:33N 28°08' W 015°25'0 0.0
2015-Jun-28 00:33N 28°08' W 015°25'0 0.0
2015-Jun-27 23:33N 28°08' W 015°25'0 0.0
2015-Jun-27 22:33N 28°08' W 015°25'0 0.0
2015-Jun-27 21:33N 28°08' W 015°25'0 0.0
2015-Jun-27 20:33N 28°08' W 015°25'0 0.0
2015-Jun-27 19:33N 28°08' W 015°25'0 0.0
2015-Jun-27 18:33N 28°08' W 015°25'0 0.0
2015-Jun-27 17:33N 28°08' W 015°25'0 0.0
2015-Jun-27 16:33N 28°08' W 015°25'1211.6
2015-Jun-27 15:34N 28°06' W 015°12'1616.4
2015-Jun-27 14:33N 28°04' W 014°54'1716.6
2015-Jun-27 13:34N 28°02' W 014°35'2016.3
2015-Jun-27 12:19N 28°04' W 014°12'10 1.2
2015-Jun-27 04:03N 28°09' W 014°02'3714.9
2015-Jun-27 01:33N 28°02' W 014°44'1615.8
2015-Jun-27 00:34N 28°04' W 015°02'1615.9
2015-Jun-26 23:34N 28°07' W 015°19'5 4.8
2015-Jun-26 22:31N 28°08' W 015°25'0 0.0
2015-Jun-26 21:22N 28°08' W 015°25'0 0.0
2015-Jun-26 20:19N 28°08' W 015°25'0 0.0
2015-Jun-26 19:22N 28°08' W 015°25'0 0.0
2015-Jun-26 18:25N 28°08' W 015°25'0 0.0
2015-Jun-26 17:25N 28°08' W 015°25'0 0.0
2015-Jun-26 16:32N 28°08' W 015°25'1110.8
2015-Jun-26 15:33N 28°05' W 015°13'1616.4
2015-Jun-26 14:33N 28°04' W 014°55'1616.4
2015-Jun-26 13:33N 28°02' W 014°36'1916.2
2015-Jun-26 12:22N 28°03' W 014°14'1416.8
2015-Jun-26 11:32N 28°10' W 014°01'17 2.7
2015-Jun-26 05:14N 28°23' W 013°49'1115.0
2015-Jun-26 04:31N 28°14' W 013°54'1615.7
2015-Jun-26 03:32N 28°06' W 014°09'2014.8
2015-Jun-26 02:11N 28°01' W 014°31'1015.2
2015-Jun-26 01:33N 28°02' W 014°42'1615.7
2015-Jun-26 00:33N 28°04' W 014°60'1616.1
2015-Jun-25 23:33N 28°06' W 015°18'6 6.3
2015-Jun-25 22:32N 28°08' W 015°25'0 0.0
2015-Jun-25 21:32N 28°08' W 015°25'0 0.0
2015-Jun-25 20:32N 28°08' W 015°25'0 0.0
2015-Jun-25 19:23N 28°08' W 015°25'0 0.0
2015-Jun-25 18:23N 28°08' W 015°25'0 0.0
2015-Jun-25 17:26N 28°08' W 015°25'0 0.0
2015-Jun-25 16:27N 28°08' W 015°25'1011.3
2015-Jun-25 15:34N 28°05' W 015°14'1716.6
2015-Jun-25 14:34N 28°04' W 014°55'1716.7
2015-Jun-25 13:34N 28°01' W 014°36'1716.9
2015-Jun-25 12:33N 28°01' W 014°17'1717.0
2015-Jun-25 11:34N 28°09' W 014°01'1716.7
2015-Jun-25 10:33N 28°23' W 013°49'19 2.7
2015-Jun-25 03:26N 28°09' W 014°03'1415.9
2015-Jun-25 02:33N 28°02' W 014°17'1715.7
2015-Jun-25 01:27N 28°02' W 014°37'1416.1
2015-Jun-25 00:33N 28°04' W 014°53'1716.5
2015-Jun-24 23:33N 28°06' W 015°12'1211.9
2015-Jun-24 22:33N 28°08' W 015°25'0 0.0
2015-Jun-24 21:31N 28°08' W 015°25'0 0.0
2015-Jun-24 20:31N 28°08' W 015°25'0 0.0
2015-Jun-24 19:31N 28°08' W 015°25'0 0.0
2015-Jun-24 18:22N 28°08' W 015°25'0 0.0
2015-Jun-24 17:22N 28°08' W 015°25'0 0.0
2015-Jun-24 16:25N 28°08' W 015°25'910.1
2015-Jun-24 15:33N 28°05' W 015°15'1716.7
2015-Jun-24 14:33N 28°03' W 014°57'1716.6
2015-Jun-24 13:33N 28°02' W 014°38'2116.6
2015-Jun-24 12:17N 28°03' W 014°14'4 0.4
2015-Jun-24 03:24N 28°04' W 014°10'2815.2
2015-Jun-24 01:33N 28°03' W 014°42'1616.1
2015-Jun-24 00:33N 28°05' W 014°60'1616.2
2015-Jun-23 23:33N 28°07' W 015°18'  
Track history (hours):
 
Tides and Currents Weather Stations Pressure Air Temp Water Temp Dewpoint Dewpoint Depression Visibility Wind Speed Wind Dir Waves Ship Positions

Volcan De Tauce

Last reported at 2015-Jul-03 23:33 UTC. Time now 2015-Jul-03 23:43 UTC.
Position N 28°06' W 015°15'.

Length 120 m; draft 4.7 m.

Type: Passenger vessel. MMSI: 224761000.

Date/timePositionNaut miles runAvg speedWind from/ knotsBaromVisibWave heightAir tempDewpointWater temp
2015-Jul-03 23:33N 28°06' W 015°15'9 8.2
2015-Jul-03 22:31N 28°08' W 015°25'0 0.0
2015-Jul-03 21:33N 28°08' W 015°25'0 0.0
2015-Jul-03 20:33N 28°08' W 015°25'0 0.0
2015-Jul-03 19:34N 28°08' W 015°25'0 0.0
2015-Jul-03 18:34N 28°08' W 015°25'0 0.0
2015-Jul-03 17:33N 28°08' W 015°25'1 0.9
2015-Jul-03 16:34N 28°07' W 015°24'1515.0
2015-Jul-03 15:33N 28°05' W 015°08'1615.8
2015-Jul-03 14:33N 28°04' W 014°50'1616.0
2015-Jul-03 13:33N 28°02' W 014°32'1615.6
2015-Jul-03 12:31N 28°03' W 014°13'1916.5
2015-Jul-03 11:23N 28°12' W 013°55'4 0.5
2015-Jul-03 04:24N 28°11' W 013°59'2116.1
2015-Jul-03 03:06N 28°01' W 014°20'1515.4
2015-Jul-03 02:08N 28°02' W 014°37'915.4
2015-Jul-03 01:34N 28°03' W 014°47'1515.3
2015-Jul-03 00:33N 28°05' W 015°04'1615.6
2015-Jul-02 23:33N 28°07' W 015°21'3 3.2
2015-Jul-02 22:27N 28°08' W 015°25'0 0.0
2015-Jul-02 21:33N 28°08' W 015°25'0 0.0
2015-Jul-02 20:33N 28°08' W 015°25'0 0.0
2015-Jul-02 19:33N 28°08' W 015°25'0 0.0
2015-Jul-02 18:33N 28°08' W 015°25'0 0.0
2015-Jul-02 17:33N 28°08' W 015°25'0 0.2
2015-Jul-02 16:33N 28°08' W 015°25'1313.0
2015-Jul-02 15:33N 28°05' W 015°10'1615.9
2015-Jul-02 14:33N 28°04' W 014°52'1616.0
2015-Jul-02 13:33N 28°02' W 014°34'1615.8
2015-Jul-02 12:33N 28°02' W 014°16'1716.4
2015-Jul-02 11:29N 28°11' W 013°59'1 0.1
2015-Jul-02 04:09N 28°10' W 013°60'1016.5
2015-Jul-02 03:33N 28°06' W 014°09'2015.3
2015-Jul-02 02:17N 28°01' W 014°31'1115.4
2015-Jul-02 01:33N 28°03' W 014°44'1515.5
2015-Jul-02 00:33N 28°05' W 015°01'1615.9
2015-Jul-01 23:33N 28°07' W 015°19'5 5.4
2015-Jul-01 22:32N 28°08' W 015°25'0 0.0
2015-Jul-01 21:33N 28°08' W 015°25'0 0.0
2015-Jul-01 20:33N 28°08' W 015°25'0 0.0
2015-Jul-01 19:33N 28°08' W 015°25'0 0.0
2015-Jul-01 18:34N 28°08' W 015°25'0 0.0
2015-Jul-01 17:34N 28°08' W 015°25'0 0.0
2015-Jul-01 16:33N 28°08' W 015°25'1313.4
2015-Jul-01 15:33N 28°05' W 015°10'1616.2
2015-Jul-01 14:33N 28°04' W 014°52'1616.4
2015-Jul-01 13:33N 28°02' W 014°33'1616.0
2015-Jul-01 12:33N 28°03' W 014°15'1916.8
2015-Jul-01 11:26N 28°12' W 013°57'13 2.1
2015-Jul-01 05:13N 28°24' W 013°49'1115.4
2015-Jul-01 04:31N 28°14' W 013°54'1616.1
2015-Jul-01 03:33N 28°06' W 014°09'1615.5
2015-Jul-01 02:32N 28°01' W 014°26'1515.4
2015-Jul-01 01:33N 28°02' W 014°43'1515.5
2015-Jul-01 00:33N 28°04' W 015°01'1615.9
2015-Jun-30 23:33N 28°06' W 015°18'6 4.6
2015-Jun-30 22:15N 28°08' W 015°25'0 0.0
2015-Jun-30 21:33N 28°08' W 015°25'0 0.0
2015-Jun-30 20:33N 28°08' W 015°25'0 0.0
2015-Jun-30 19:33N 28°08' W 015°25'0 0.0
2015-Jun-30 18:33N 28°08' W 015°25'0 0.0
2015-Jun-30 17:33N 28°08' W 015°25'0 0.4
2015-Jun-30 16:33N 28°08' W 015°25'1414.3
2015-Jun-30 15:33N 28°06' W 015°08'1615.8
2015-Jun-30 14:33N 28°04' W 014°51'1616.4
2015-Jun-30 13:33N 28°02' W 014°32'1616.1
2015-Jun-30 12:33N 28°03' W 014°14'1716.9
2015-Jun-30 11:33N 28°11' W 013°57'2 0.3
2015-Jun-30 04:33N 28°13' W 013°56'1716.2
2015-Jun-30 03:29N 28°04' W 014°13'1415.2
2015-Jun-30 02:33N 28°01' W 014°29'1615.2
2015-Jun-30 01:29N 28°03' W 014°47'1415.4
2015-Jun-30 00:33N 28°04' W 015°03'1616.0
2015-Jun-29 23:33N 28°07' W 015°21'4 3.7
2015-Jun-29 22:32N 28°08' W 015°25'0 0.0
2015-Jun-28 10:33N 28°08' W 015°25'0 0.0
2015-Jun-28 09:33N 28°08' W 015°25'0 0.0
2015-Jun-28 08:33N 28°08' W 015°25'0 0.0
2015-Jun-28 07:33N 28°08' W 015°25'0 0.0
2015-Jun-28 06:33N 28°08' W 015°25'0 0.0
2015-Jun-28 05:33N 28°08' W 015°25'0 0.0
2015-Jun-28 04:33N 28°08' W 015°25'0 0.0
2015-Jun-28 03:33N 28°08' W 015°25'0 0.0
2015-Jun-28 02:33N 28°08' W 015°25'0 0.0
2015-Jun-28 01:33N 28°08' W 015°25'0 0.0
2015-Jun-28 00:33N 28°08' W 015°25'0 0.0
2015-Jun-27 23:33N 28°08' W 015°25'0 0.0
2015-Jun-27 22:33N 28°08' W 015°25'0 0.0
2015-Jun-27 21:33N 28°08' W 015°25'0 0.0
2015-Jun-27 20:33N 28°08' W 015°25'0 0.0
2015-Jun-27 19:33N 28°08' W 015°25'0 0.0
2015-Jun-27 18:33N 28°08' W 015°25'0 0.0
2015-Jun-27 17:33N 28°08' W 015°25'0 0.0
2015-Jun-27 16:33N 28°08' W 015°25'1211.6
2015-Jun-27 15:34N 28°06' W 015°12'1616.4
2015-Jun-27 14:33N 28°04' W 014°54'1716.6
2015-Jun-27 13:34N 28°02' W 014°35'2016.3
2015-Jun-27 12:19N 28°04' W 014°12'10 1.2
2015-Jun-27 04:03N 28°09' W 014°02'3714.9
2015-Jun-27 01:33N 28°02' W 014°44'1615.8
2015-Jun-27 00:34N 28°04' W 015°02'1615.9
2015-Jun-26 23:34N 28°07' W 015°19'5 4.8
2015-Jun-26 22:31N 28°08' W 015°25'0 0.0
2015-Jun-26 21:22N 28°08' W 015°25'0 0.0
2015-Jun-26 20:19N 28°08' W 015°25'0 0.0
2015-Jun-26 19:22N 28°08' W 015°25'0 0.0
2015-Jun-26 18:25N 28°08' W 015°25'0 0.0
2015-Jun-26 17:25N 28°08' W 015°25'0 0.0
2015-Jun-26 16:32N 28°08' W 015°25'1110.8
2015-Jun-26 15:33N 28°05' W 015°13'1616.4
2015-Jun-26 14:33N 28°04' W 014°55'1616.4
2015-Jun-26 13:33N 28°02' W 014°36'1916.2
2015-Jun-26 12:22N 28°03' W 014°14'1416.8
2015-Jun-26 11:32N 28°10' W 014°01'17 2.7
2015-Jun-26 05:14N 28°23' W 013°49'1115.0
2015-Jun-26 04:31N 28°14' W 013°54'1615.7
2015-Jun-26 03:32N 28°06' W 014°09'2014.8
2015-Jun-26 02:11N 28°01' W 014°31'1015.2
2015-Jun-26 01:33N 28°02' W 014°42'1615.7
2015-Jun-26 00:33N 28°04' W 014°60'1616.1
2015-Jun-25 23:33N 28°06' W 015°18'6 6.3
2015-Jun-25 22:32N 28°08' W 015°25'0 0.0
2015-Jun-25 21:32N 28°08' W 015°25'0 0.0
2015-Jun-25 20:32N 28°08' W 015°25'0 0.0
2015-Jun-25 19:23N 28°08' W 015°25'0 0.0
2015-Jun-25 18:23N 28°08' W 015°25'0 0.0
2015-Jun-25 17:26N 28°08' W 015°25'0 0.0
2015-Jun-25 16:27N 28°08' W 015°25'1011.3
2015-Jun-25 15:34N 28°05' W 015°14'1716.6
2015-Jun-25 14:34N 28°04' W 014°55'1716.7
2015-Jun-25 13:34N 28°01' W 014°36'1716.9
2015-Jun-25 12:33N 28°01' W 014°17'1717.0
2015-Jun-25 11:34N 28°09' W 014°01'1716.7
2015-Jun-25 10:33N 28°23' W 013°49'19 2.7
2015-Jun-25 03:26N 28°09' W 014°03'1415.9
2015-Jun-25 02:33N 28°02' W 014°17'1715.7
2015-Jun-25 01:27N 28°02' W 014°37'1416.1
2015-Jun-25 00:33N 28°04' W 014°53'1716.5
2015-Jun-24 23:33N 28°06' W 015°12'1211.9
2015-Jun-24 22:33N 28°08' W 015°25'0 0.0
2015-Jun-24 21:31N 28°08' W 015°25'0 0.0
2015-Jun-24 20:31N 28°08' W 015°25'0 0.0
2015-Jun-24 19:31N 28°08' W 015°25'0 0.0
2015-Jun-24 18:22N 28°08' W 015°25'0 0.0
2015-Jun-24 17:22N 28°08' W 015°25'0 0.0
2015-Jun-24 16:25N 28°08' W 015°25'910.1
2015-Jun-24 15:33N 28°05' W 015°15'1716.7
2015-Jun-24 14:33N 28°03' W 014°57'1716.6
2015-Jun-24 13:33N 28°02' W 014°38'2116.6
2015-Jun-24 12:17N 28°03' W 014°14'4 0.4
2015-Jun-24 03:24N 28°04' W 014°10'2815.2
2015-Jun-24 01:33N 28°03' W 014°42'1616.1
2015-Jun-24 00:33N 28°05' W 014°60'1616.2
2015-Jun-23 23:33N 28°07' W 015°18'  

Dump ship's entire track history